sensor_id;sensor_type;location;lat;lon;timestamp;P1;durP1;ratioP1;P2;durP2;ratioP2
22786;SDS011;63134;52.020;4.714;2023-11-19T00:02:43;35.30;;;7.30;;
22786;SDS011;63134;52.020;4.714;2023-11-19T00:05:29;19.05;;;5.50;;
22786;SDS011;63134;52.020;4.714;2023-11-19T00:08:15;27.48;;;7.03;;
22786;SDS011;63134;52.020;4.714;2023-11-19T00:11:00;30.08;;;7.07;;
22786;SDS011;63134;52.020;4.714;2023-11-19T00:13:48;26.80;;;7.28;;
22786;SDS011;63134;52.020;4.714;2023-11-19T00:16:35;25.00;;;5.95;;
22786;SDS011;63134;52.020;4.714;2023-11-19T00:19:24;26.90;;;6.07;;
22786;SDS011;63134;52.020;4.714;2023-11-19T00:22:09;30.13;;;7.18;;
22786;SDS011;63134;52.020;4.714;2023-11-19T00:24:55;30.13;;;6.63;;
22786;SDS011;63134;52.020;4.714;2023-11-19T00:27:40;38.05;;;7.30;;
22786;SDS011;63134;52.020;4.714;2023-11-19T00:30:29;33.90;;;6.38;;
22786;SDS011;63134;52.020;4.714;2023-11-19T00:33:16;33.60;;;7.43;;
22786;SDS011;63134;52.020;4.714;2023-11-19T00:36:02;29.88;;;7.60;;
22786;SDS011;63134;52.020;4.714;2023-11-19T00:38:48;32.72;;;7.65;;
22786;SDS011;63134;52.020;4.714;2023-11-19T00:41:34;33.58;;;7.43;;
22786;SDS011;63134;52.020;4.714;2023-11-19T00:44:19;28.95;;;7.28;;
22786;SDS011;63134;52.020;4.714;2023-11-19T00:47:05;33.45;;;7.18;;
22786;SDS011;63134;52.020;4.714;2023-11-19T00:49:51;40.88;;;8.00;;
22786;SDS011;63134;52.020;4.714;2023-11-19T00:52:45;42.63;;;7.78;;
22786;SDS011;63134;52.020;4.714;2023-11-19T00:55:33;37.70;;;7.78;;
22786;SDS011;63134;52.020;4.714;2023-11-19T00:58:19;35.72;;;8.10;;
22786;SDS011;63134;52.020;4.714;2023-11-19T01:01:05;45.65;;;9.05;;
22786;SDS011;63134;52.020;4.714;2023-11-19T01:03:50;45.60;;;8.38;;
22786;SDS011;63134;52.020;4.714;2023-11-19T01:06:36;44.00;;;7.38;;
22786;SDS011;63134;52.020;4.714;2023-11-19T01:09:33;37.28;;;7.70;;
22786;SDS011;63134;52.020;4.714;2023-11-19T01:12:20;59.72;;;10.55;;
22786;SDS011;63134;52.020;4.714;2023-11-19T01:15:06;35.17;;;8.10;;
22786;SDS011;63134;52.020;4.714;2023-11-19T01:17:52;40.47;;;8.57;;
22786;SDS011;63134;52.020;4.714;2023-11-19T01:20:38;36.42;;;8.73;;
22786;SDS011;63134;52.020;4.714;2023-11-19T01:23:24;43.90;;;8.77;;
22786;SDS011;63134;52.020;4.714;2023-11-19T01:26:10;34.05;;;7.40;;
22786;SDS011;63134;52.020;4.714;2023-11-19T01:28:57;47.92;;;9.05;;
22786;SDS011;63134;52.020;4.714;2023-11-19T01:31:46;40.25;;;9.48;;
22786;SDS011;63134;52.020;4.714;2023-11-19T01:34:36;39.85;;;7.55;;
22786;SDS011;63134;52.020;4.714;2023-11-19T01:37:22;44.40;;;8.95;;
22786;SDS011;63134;52.020;4.714;2023-11-19T01:40:11;31.50;;;7.82;;
22786;SDS011;63134;52.020;4.714;2023-11-19T01:42:57;51.60;;;8.60;;
22786;SDS011;63134;52.020;4.714;2023-11-19T01:45:42;38.20;;;9.60;;
22786;SDS011;63134;52.020;4.714;2023-11-19T01:48:29;44.35;;;9.18;;
22786;SDS011;63134;52.020;4.714;2023-11-19T01:51:16;35.78;;;8.23;;
22786;SDS011;63134;52.020;4.714;2023-11-19T01:54:02;43.45;;;9.82;;
22786;SDS011;63134;52.020;4.714;2023-11-19T01:56:48;37.97;;;7.93;;
22786;SDS011;63134;52.020;4.714;2023-11-19T01:59:34;47.42;;;10.68;;
22786;SDS011;63134;52.020;4.714;2023-11-19T02:02:19;41.15;;;9.10;;
22786;SDS011;63134;52.020;4.714;2023-11-19T02:05:06;42.90;;;10.70;;
22786;SDS011;63134;52.020;4.714;2023-11-19T02:07:52;41.70;;;7.53;;
22786;SDS011;63134;52.020;4.714;2023-11-19T02:10:38;35.92;;;8.00;;
22786;SDS011;63134;52.020;4.714;2023-11-19T02:13:24;46.72;;;9.38;;
22786;SDS011;63134;52.020;4.714;2023-11-19T02:16:10;42.67;;;8.93;;
22786;SDS011;63134;52.020;4.714;2023-11-19T02:18:56;48.42;;;10.07;;
22786;SDS011;63134;52.020;4.714;2023-11-19T02:21:42;49.42;;;10.10;;
22786;SDS011;63134;52.020;4.714;2023-11-19T02:24:27;44.35;;;9.75;;
22786;SDS011;63134;52.020;4.714;2023-11-19T02:27:16;37.55;;;8.13;;
22786;SDS011;63134;52.020;4.714;2023-11-19T02:32:59;40.90;;;9.57;;
22786;SDS011;63134;52.020;4.714;2023-11-19T02:35:50;50.33;;;9.10;;
22786;SDS011;63134;52.020;4.714;2023-11-19T02:38:36;41.55;;;8.77;;
22786;SDS011;63134;52.020;4.714;2023-11-19T02:41:27;53.42;;;11.00;;
22786;SDS011;63134;52.020;4.714;2023-11-19T02:44:12;62.42;;;10.65;;
22786;SDS011;63134;52.020;4.714;2023-11-19T02:46:58;50.22;;;9.80;;
22786;SDS011;63134;52.020;4.714;2023-11-19T02:49:46;45.63;;;9.77;;
22786;SDS011;63134;52.020;4.714;2023-11-19T02:52:34;48.83;;;10.32;;
22786;SDS011;63134;52.020;4.714;2023-11-19T02:55:22;51.08;;;10.13;;
22786;SDS011;63134;52.020;4.714;2023-11-19T02:58:09;51.05;;;9.65;;
22786;SDS011;63134;52.020;4.714;2023-11-19T03:01:05;45.40;;;9.77;;
22786;SDS011;63134;52.020;4.714;2023-11-19T03:04:08;46.13;;;9.60;;
22786;SDS011;63134;52.020;4.714;2023-11-19T03:06:57;48.28;;;10.05;;
22786;SDS011;63134;52.020;4.714;2023-11-19T03:09:43;52.38;;;10.02;;
22786;SDS011;63134;52.020;4.714;2023-11-19T03:12:29;43.15;;;9.40;;
22786;SDS011;63134;52.020;4.714;2023-11-19T03:15:15;53.63;;;10.18;;
22786;SDS011;63134;52.020;4.714;2023-11-19T03:18:01;55.97;;;11.40;;
22786;SDS011;63134;52.020;4.714;2023-11-19T03:20:47;39.83;;;7.80;;
22786;SDS011;63134;52.020;4.714;2023-11-19T03:23:32;49.92;;;10.80;;
22786;SDS011;63134;52.020;4.714;2023-11-19T03:26:18;40.33;;;9.77;;
22786;SDS011;63134;52.020;4.714;2023-11-19T03:29:03;39.45;;;9.10;;
22786;SDS011;63134;52.020;4.714;2023-11-19T03:31:54;47.95;;;10.35;;
22786;SDS011;63134;52.020;4.714;2023-11-19T03:34:41;56.67;;;9.85;;
22786;SDS011;63134;52.020;4.714;2023-11-19T03:37:28;41.83;;;9.07;;
22786;SDS011;63134;52.020;4.714;2023-11-19T03:40:17;41.00;;;9.63;;
22786;SDS011;63134;52.020;4.714;2023-11-19T03:43:06;42.45;;;9.30;;
22786;SDS011;63134;52.020;4.714;2023-11-19T03:45:52;42.03;;;9.70;;
22786;SDS011;63134;52.020;4.714;2023-11-19T03:48:39;45.90;;;10.10;;
22786;SDS011;63134;52.020;4.714;2023-11-19T03:51:24;43.85;;;9.38;;
22786;SDS011;63134;52.020;4.714;2023-11-19T03:54:10;53.85;;;10.07;;
22786;SDS011;63134;52.020;4.714;2023-11-19T03:56:56;54.58;;;11.57;;
22786;SDS011;63134;52.020;4.714;2023-11-19T03:59:42;59.72;;;11.20;;
22786;SDS011;63134;52.020;4.714;2023-11-19T04:02:27;53.05;;;9.90;;
22786;SDS011;63134;52.020;4.714;2023-11-19T04:05:12;39.90;;;8.93;;
22786;SDS011;63134;52.020;4.714;2023-11-19T04:08:00;62.58;;;11.65;;
22786;SDS011;63134;52.020;4.714;2023-11-19T04:10:46;62.67;;;11.27;;
22786;SDS011;63134;52.020;4.714;2023-11-19T04:13:34;49.88;;;10.15;;
22786;SDS011;63134;52.020;4.714;2023-11-19T04:16:25;43.15;;;9.60;;
22786;SDS011;63134;52.020;4.714;2023-11-19T04:19:14;46.95;;;9.90;;
22786;SDS011;63134;52.020;4.714;2023-11-19T04:22:00;47.33;;;9.43;;
22786;SDS011;63134;52.020;4.714;2023-11-19T04:24:48;58.42;;;10.50;;
22786;SDS011;63134;52.020;4.714;2023-11-19T04:27:34;50.40;;;11.05;;
22786;SDS011;63134;52.020;4.714;2023-11-19T04:30:19;52.50;;;10.15;;
22786;SDS011;63134;52.020;4.714;2023-11-19T04:33:05;45.15;;;9.88;;
22786;SDS011;63134;52.020;4.714;2023-11-19T04:35:50;51.28;;;11.05;;
22786;SDS011;63134;52.020;4.714;2023-11-19T04:38:36;49.20;;;9.63;;
22786;SDS011;63134;52.020;4.714;2023-11-19T04:41:24;49.78;;;9.40;;
22786;SDS011;63134;52.020;4.714;2023-11-19T04:44:10;56.55;;;11.63;;
22786;SDS011;63134;52.020;4.714;2023-11-19T04:46:58;54.22;;;10.25;;
22786;SDS011;63134;52.020;4.714;2023-11-19T04:49:44;53.78;;;10.30;;
22786;SDS011;63134;52.020;4.714;2023-11-19T04:52:30;47.25;;;8.57;;
22786;SDS011;63134;52.020;4.714;2023-11-19T04:55:15;49.58;;;9.23;;
22786;SDS011;63134;52.020;4.714;2023-11-19T04:58:04;43.13;;;8.95;;
22786;SDS011;63134;52.020;4.714;2023-11-19T05:00:49;50.20;;;10.23;;
22786;SDS011;63134;52.020;4.714;2023-11-19T05:03:35;46.63;;;10.07;;
22786;SDS011;63134;52.020;4.714;2023-11-19T05:06:21;40.67;;;9.27;;
22786;SDS011;63134;52.020;4.714;2023-11-19T05:09:08;38.13;;;8.80;;
22786;SDS011;63134;52.020;4.714;2023-11-19T05:11:54;52.55;;;9.00;;
22786;SDS011;63134;52.020;4.714;2023-11-19T05:14:39;60.92;;;10.65;;
22786;SDS011;63134;52.020;4.714;2023-11-19T05:17:25;39.35;;;9.32;;
22786;SDS011;63134;52.020;4.714;2023-11-19T05:20:13;41.83;;;10.13;;
22786;SDS011;63134;52.020;4.714;2023-11-19T05:22:58;57.55;;;10.98;;
22786;SDS011;63134;52.020;4.714;2023-11-19T05:25:45;43.33;;;8.10;;
22786;SDS011;63134;52.020;4.714;2023-11-19T05:28:36;52.13;;;10.30;;
22786;SDS011;63134;52.020;4.714;2023-11-19T05:31:24;46.10;;;9.25;;
22786;SDS011;63134;52.020;4.714;2023-11-19T05:34:09;51.55;;;11.15;;
22786;SDS011;63134;52.020;4.714;2023-11-19T05:36:55;46.22;;;9.90;;
22786;SDS011;63134;52.020;4.714;2023-11-19T05:39:41;42.67;;;10.48;;
22786;SDS011;63134;52.020;4.714;2023-11-19T05:42:27;49.38;;;9.85;;
22786;SDS011;63134;52.020;4.714;2023-11-19T05:45:12;40.67;;;8.82;;
22786;SDS011;63134;52.020;4.714;2023-11-19T05:47:58;39.15;;;8.68;;
22786;SDS011;63134;52.020;4.714;2023-11-19T05:50:44;47.95;;;9.77;;
22786;SDS011;63134;52.020;4.714;2023-11-19T05:53:34;50.55;;;9.45;;
22786;SDS011;63134;52.020;4.714;2023-11-19T05:56:19;56.45;;;11.20;;
22786;SDS011;63134;52.020;4.714;2023-11-19T05:59:08;45.05;;;9.13;;
22786;SDS011;63134;52.020;4.714;2023-11-19T06:02:00;41.80;;;9.43;;
22786;SDS011;63134;52.020;4.714;2023-11-19T06:04:45;41.55;;;9.10;;
22786;SDS011;63134;52.020;4.714;2023-11-19T06:07:34;47.28;;;9.18;;
22786;SDS011;63134;52.020;4.714;2023-11-19T06:10:20;53.67;;;10.43;;
22786;SDS011;63134;52.020;4.714;2023-11-19T06:13:06;44.15;;;9.15;;
22786;SDS011;63134;52.020;4.714;2023-11-19T06:15:51;39.42;;;8.55;;
22786;SDS011;63134;52.020;4.714;2023-11-19T06:18:37;49.25;;;9.75;;
22786;SDS011;63134;52.020;4.714;2023-11-19T06:21:23;38.78;;;8.85;;
22786;SDS011;63134;52.020;4.714;2023-11-19T06:24:09;51.83;;;10.05;;
22786;SDS011;63134;52.020;4.714;2023-11-19T06:26:55;57.78;;;9.63;;
22786;SDS011;63134;52.020;4.714;2023-11-19T06:29:40;44.25;;;8.63;;
22786;SDS011;63134;52.020;4.714;2023-11-19T06:32:28;45.78;;;9.63;;
22786;SDS011;63134;52.020;4.714;2023-11-19T06:35:14;48.00;;;8.73;;
22786;SDS011;63134;52.020;4.714;2023-11-19T06:38:00;40.08;;;8.90;;
22786;SDS011;63134;52.020;4.714;2023-11-19T06:40:48;50.13;;;9.38;;
22786;SDS011;63134;52.020;4.714;2023-11-19T06:43:38;48.60;;;8.77;;
22786;SDS011;63134;52.020;4.714;2023-11-19T06:46:26;44.72;;;10.52;;
22786;SDS011;63134;52.020;4.714;2023-11-19T06:49:13;49.92;;;9.35;;
22786;SDS011;63134;52.020;4.714;2023-11-19T06:52:07;43.55;;;8.80;;
22786;SDS011;63134;52.020;4.714;2023-11-19T06:54:52;45.38;;;9.38;;
22786;SDS011;63134;52.020;4.714;2023-11-19T06:57:52;44.47;;;8.63;;
22786;SDS011;63134;52.020;4.714;2023-11-19T07:00:39;38.95;;;9.52;;
22786;SDS011;63134;52.020;4.714;2023-11-19T07:03:26;51.22;;;9.57;;
22786;SDS011;63134;52.020;4.714;2023-11-19T07:06:12;39.88;;;8.68;;
22786;SDS011;63134;52.020;4.714;2023-11-19T07:08:59;42.22;;;8.82;;
22786;SDS011;63134;52.020;4.714;2023-11-19T07:11:44;50.92;;;9.45;;
22786;SDS011;63134;52.020;4.714;2023-11-19T07:14:30;52.22;;;10.20;;
22786;SDS011;63134;52.020;4.714;2023-11-19T07:17:16;45.25;;;8.55;;
22786;SDS011;63134;52.020;4.714;2023-11-19T07:20:03;57.90;;;10.30;;
22786;SDS011;63134;52.020;4.714;2023-11-19T07:22:51;41.30;;;9.25;;
22786;SDS011;63134;52.020;4.714;2023-11-19T07:25:39;41.13;;;8.82;;
22786;SDS011;63134;52.020;4.714;2023-11-19T07:28:25;50.67;;;9.60;;
22786;SDS011;63134;52.020;4.714;2023-11-19T07:31:10;33.72;;;7.78;;
22786;SDS011;63134;52.020;4.714;2023-11-19T07:33:57;42.90;;;8.60;;
22786;SDS011;63134;52.020;4.714;2023-11-19T07:36:45;44.65;;;9.90;;
22786;SDS011;63134;52.020;4.714;2023-11-19T07:39:33;48.53;;;10.05;;
22786;SDS011;63134;52.020;4.714;2023-11-19T07:42:20;53.35;;;9.48;;
22786;SDS011;63134;52.020;4.714;2023-11-19T07:45:06;52.72;;;9.07;;
22786;SDS011;63134;52.020;4.714;2023-11-19T07:47:52;43.28;;;9.88;;
22786;SDS011;63134;52.020;4.714;2023-11-19T07:50:38;49.03;;;10.30;;
22786;SDS011;63134;52.020;4.714;2023-11-19T07:53:28;48.63;;;9.77;;
22786;SDS011;63134;52.020;4.714;2023-11-19T07:56:13;50.03;;;11.15;;
22786;SDS011;63134;52.020;4.714;2023-11-19T07:58:59;53.17;;;10.80;;
22786;SDS011;63134;52.020;4.714;2023-11-19T08:01:45;49.83;;;9.50;;
22786;SDS011;63134;52.020;4.714;2023-11-19T08:04:31;48.05;;;9.35;;
22786;SDS011;63134;52.020;4.714;2023-11-19T08:07:20;56.78;;;11.27;;
22786;SDS011;63134;52.020;4.714;2023-11-19T08:10:08;48.22;;;10.10;;
22786;SDS011;63134;52.020;4.714;2023-11-19T08:12:56;44.67;;;8.65;;
22786;SDS011;63134;52.020;4.714;2023-11-19T08:15:41;41.33;;;8.75;;
22786;SDS011;63134;52.020;4.714;2023-11-19T08:18:28;51.75;;;10.70;;
22786;SDS011;63134;52.020;4.714;2023-11-19T08:21:13;40.88;;;8.82;;
22786;SDS011;63134;52.020;4.714;2023-11-19T08:24:00;38.78;;;9.05;;
22786;SDS011;63134;52.020;4.714;2023-11-19T08:26:47;49.53;;;9.32;;
22786;SDS011;63134;52.020;4.714;2023-11-19T08:29:39;48.35;;;8.90;;
22786;SDS011;63134;52.020;4.714;2023-11-19T08:32:28;44.92;;;10.13;;
22786;SDS011;63134;52.020;4.714;2023-11-19T08:35:13;41.25;;;9.13;;
22786;SDS011;63134;52.020;4.714;2023-11-19T08:38:01;49.22;;;9.65;;
22786;SDS011;63134;52.020;4.714;2023-11-19T08:40:46;32.67;;;7.93;;
22786;SDS011;63134;52.020;4.714;2023-11-19T08:43:32;53.30;;;11.15;;
22786;SDS011;63134;52.020;4.714;2023-11-19T08:46:17;40.60;;;8.75;;
22786;SDS011;63134;52.020;4.714;2023-11-19T08:49:03;43.15;;;9.20;;
22786;SDS011;63134;52.020;4.714;2023-11-19T08:51:53;42.53;;;9.20;;
22786;SDS011;63134;52.020;4.714;2023-11-19T08:54:42;40.50;;;8.90;;
22786;SDS011;63134;52.020;4.714;2023-11-19T08:57:28;39.63;;;9.07;;
22786;SDS011;63134;52.020;4.714;2023-11-19T09:00:14;34.40;;;8.93;;
22786;SDS011;63134;52.020;4.714;2023-11-19T09:03:00;43.85;;;9.18;;
22786;SDS011;63134;52.020;4.714;2023-11-19T09:05:46;45.42;;;10.30;;
22786;SDS011;63134;52.020;4.714;2023-11-19T09:08:33;37.47;;;9.40;;
22786;SDS011;63134;52.020;4.714;2023-11-19T09:11:19;42.53;;;9.50;;
22786;SDS011;63134;52.020;4.714;2023-11-19T09:14:04;37.28;;;8.77;;
22786;SDS011;63134;52.020;4.714;2023-11-19T09:16:50;41.13;;;10.00;;
22786;SDS011;63134;52.020;4.714;2023-11-19T09:19:35;43.03;;;10.05;;
22786;SDS011;63134;52.020;4.714;2023-11-19T09:22:20;42.25;;;9.48;;
22786;SDS011;63134;52.020;4.714;2023-11-19T09:25:06;40.65;;;8.88;;
22786;SDS011;63134;52.020;4.714;2023-11-19T09:27:55;41.47;;;9.10;;
22786;SDS011;63134;52.020;4.714;2023-11-19T09:30:41;39.25;;;9.35;;
22786;SDS011;63134;52.020;4.714;2023-11-19T09:33:27;36.30;;;8.73;;
22786;SDS011;63134;52.020;4.714;2023-11-19T09:36:12;44.40;;;9.73;;
22786;SDS011;63134;52.020;4.714;2023-11-19T09:39:02;44.45;;;9.45;;
22786;SDS011;63134;52.020;4.714;2023-11-19T09:41:49;41.78;;;10.35;;
22786;SDS011;63134;52.020;4.714;2023-11-19T09:44:35;41.85;;;9.45;;
22786;SDS011;63134;52.020;4.714;2023-11-19T09:47:24;43.40;;;9.38;;
22786;SDS011;63134;52.020;4.714;2023-11-19T09:50:17;46.38;;;9.98;;
22786;SDS011;63134;52.020;4.714;2023-11-19T09:53:03;46.05;;;9.77;;
22786;SDS011;63134;52.020;4.714;2023-11-19T09:55:55;53.55;;;10.73;;
22786;SDS011;63134;52.020;4.714;2023-11-19T09:58:40;39.78;;;9.65;;
22786;SDS011;63134;52.020;4.714;2023-11-19T10:01:26;41.28;;;8.43;;
22786;SDS011;63134;52.020;4.714;2023-11-19T10:04:15;46.15;;;9.85;;
22786;SDS011;63134;52.020;4.714;2023-11-19T10:07:02;31.73;;;7.25;;
22786;SDS011;63134;52.020;4.714;2023-11-19T10:09:48;33.45;;;7.30;;
22786;SDS011;63134;52.020;4.714;2023-11-19T10:12:33;35.65;;;8.45;;
22786;SDS011;63134;52.020;4.714;2023-11-19T10:15:20;33.90;;;8.02;;
22786;SDS011;63134;52.020;4.714;2023-11-19T10:18:07;27.95;;;7.13;;
22786;SDS011;63134;52.020;4.714;2023-11-19T10:20:52;33.97;;;8.15;;
22786;SDS011;63134;52.020;4.714;2023-11-19T10:23:49;38.10;;;7.75;;
22786;SDS011;63134;52.020;4.714;2023-11-19T10:26:36;26.77;;;6.60;;
22786;SDS011;63134;52.020;4.714;2023-11-19T10:29:24;29.27;;;6.50;;
22786;SDS011;63134;52.020;4.714;2023-11-19T10:32:10;29.95;;;6.70;;
22786;SDS011;63134;52.020;4.714;2023-11-19T10:35:10;30.73;;;7.07;;
22786;SDS011;63134;52.020;4.714;2023-11-19T10:37:58;32.75;;;7.05;;
22786;SDS011;63134;52.020;4.714;2023-11-19T10:41:02;29.65;;;6.72;;
22786;SDS011;63134;52.020;4.714;2023-11-19T10:43:49;37.50;;;7.70;;
22786;SDS011;63134;52.020;4.714;2023-11-19T10:46:44;28.08;;;7.90;;
22786;SDS011;63134;52.020;4.714;2023-11-19T10:49:30;31.20;;;7.22;;
22786;SDS011;63134;52.020;4.714;2023-11-19T10:52:19;35.17;;;8.07;;
22786;SDS011;63134;52.020;4.714;2023-11-19T10:55:05;26.50;;;7.30;;
22786;SDS011;63134;52.020;4.714;2023-11-19T10:58:02;37.75;;;8.32;;
22786;SDS011;63134;52.020;4.714;2023-11-19T11:00:51;33.63;;;7.07;;
22786;SDS011;63134;52.020;4.714;2023-11-19T11:03:40;23.05;;;6.68;;
22786;SDS011;63134;52.020;4.714;2023-11-19T11:06:27;30.77;;;7.45;;
22786;SDS011;63134;52.020;4.714;2023-11-19T11:09:14;32.15;;;7.63;;
22786;SDS011;63134;52.020;4.714;2023-11-19T11:12:00;30.75;;;8.13;;
22786;SDS011;63134;52.020;4.714;2023-11-19T11:14:46;41.13;;;8.85;;
22786;SDS011;63134;52.020;4.714;2023-11-19T11:17:33;40.40;;;9.20;;
22786;SDS011;63134;52.020;4.714;2023-11-19T11:20:22;37.92;;;9.65;;
22786;SDS011;63134;52.020;4.714;2023-11-19T11:26:23;36.00;;;9.70;;
22786;SDS011;63134;52.020;4.714;2023-11-19T11:29:19;35.00;;;9.00;;
22786;SDS011;63134;52.020;4.714;2023-11-19T11:35:42;32.10;;;8.32;;
22786;SDS011;63134;52.020;4.714;2023-11-19T11:38:49;38.90;;;8.82;;
22786;SDS011;63134;52.020;4.714;2023-11-19T11:41:35;39.13;;;8.20;;
22786;SDS011;63134;52.020;4.714;2023-11-19T11:44:48;34.72;;;7.93;;
22786;SDS011;63134;52.020;4.714;2023-11-19T11:50:48;29.30;;;7.20;;
22786;SDS011;63134;52.020;4.714;2023-11-19T11:53:41;24.75;;;6.88;;
22786;SDS011;63134;52.020;4.714;2023-11-19T11:56:32;32.10;;;7.07;;
22786;SDS011;63134;52.020;4.714;2023-11-19T11:59:21;26.50;;;6.70;;
22786;SDS011;63134;52.020;4.714;2023-11-19T12:02:11;20.65;;;5.45;;
22786;SDS011;63134;52.020;4.714;2023-11-19T12:04:59;21.08;;;5.63;;
22786;SDS011;63134;52.020;4.714;2023-11-19T12:07:55;28.35;;;6.05;;
22786;SDS011;63134;52.020;4.714;2023-11-19T12:10:47;22.85;;;6.22;;
22786;SDS011;63134;52.020;4.714;2023-11-19T12:13:47;21.05;;;5.68;;
22786;SDS011;63134;52.020;4.714;2023-11-19T12:16:41;23.27;;;6.20;;
22786;SDS011;63134;52.020;4.714;2023-11-19T12:19:26;20.70;;;5.95;;
22786;SDS011;63134;52.020;4.714;2023-11-19T12:22:12;21.88;;;5.80;;
22786;SDS011;63134;52.020;4.714;2023-11-19T12:24:58;23.75;;;6.53;;
22786;SDS011;63134;52.020;4.714;2023-11-19T12:27:46;25.65;;;6.93;;
22786;SDS011;63134;52.020;4.714;2023-11-19T12:30:33;29.65;;;8.13;;
22786;SDS011;63134;52.020;4.714;2023-11-19T12:33:21;26.65;;;6.63;;
22786;SDS011;63134;52.020;4.714;2023-11-19T12:36:06;28.85;;;7.25;;
22786;SDS011;63134;52.020;4.714;2023-11-19T12:38:54;28.13;;;7.65;;
22786;SDS011;63134;52.020;4.714;2023-11-19T12:41:49;34.40;;;7.43;;
22786;SDS011;63134;52.020;4.714;2023-11-19T12:44:36;32.80;;;7.38;;
22786;SDS011;63134;52.020;4.714;2023-11-19T12:47:23;30.10;;;8.00;;
22786;SDS011;63134;52.020;4.714;2023-11-19T12:50:09;35.00;;;7.43;;
22786;SDS011;63134;52.020;4.714;2023-11-19T12:52:58;32.10;;;8.13;;
22786;SDS011;63134;52.020;4.714;2023-11-19T12:55:44;28.33;;;7.68;;
22786;SDS011;63134;52.020;4.714;2023-11-19T13:01:18;35.28;;;8.27;;
22786;SDS011;63134;52.020;4.714;2023-11-19T13:04:15;36.15;;;8.63;;
22786;SDS011;63134;52.020;4.714;2023-11-19T13:07:03;36.50;;;8.57;;
22786;SDS011;63134;52.020;4.714;2023-11-19T13:09:50;31.73;;;7.85;;
22786;SDS011;63134;52.020;4.714;2023-11-19T13:12:39;34.65;;;7.00;;
22786;SDS011;63134;52.020;4.714;2023-11-19T13:15:24;34.95;;;7.32;;
22786;SDS011;63134;52.020;4.714;2023-11-19T13:18:11;34.85;;;7.35;;
22786;SDS011;63134;52.020;4.714;2023-11-19T13:20:58;34.05;;;8.40;;
22786;SDS011;63134;52.020;4.714;2023-11-19T13:23:43;29.83;;;7.47;;
22786;SDS011;63134;52.020;4.714;2023-11-19T13:26:29;40.55;;;8.32;;
22786;SDS011;63134;52.020;4.714;2023-11-19T13:29:15;32.83;;;7.13;;
22786;SDS011;63134;52.020;4.714;2023-11-19T13:32:03;37.47;;;7.85;;
22786;SDS011;63134;52.020;4.714;2023-11-19T13:34:50;35.42;;;7.55;;
22786;SDS011;63134;52.020;4.714;2023-11-19T13:37:36;23.38;;;6.13;;
22786;SDS011;63134;52.020;4.714;2023-11-19T13:40:21;30.52;;;7.68;;
22786;SDS011;63134;52.020;4.714;2023-11-19T13:43:10;30.77;;;7.80;;
22786;SDS011;63134;52.020;4.714;2023-11-19T13:45:56;31.33;;;7.95;;
22786;SDS011;63134;52.020;4.714;2023-11-19T13:48:43;33.05;;;7.18;;
22786;SDS011;63134;52.020;4.714;2023-11-19T13:51:29;38.67;;;7.53;;
22786;SDS011;63134;52.020;4.714;2023-11-19T13:54:14;34.83;;;7.50;;
22786;SDS011;63134;52.020;4.714;2023-11-19T13:57:00;22.55;;;6.40;;
22786;SDS011;63134;52.020;4.714;2023-11-19T13:59:45;21.80;;;6.45;;
22786;SDS011;63134;52.020;4.714;2023-11-19T14:02:35;30.17;;;7.18;;
22786;SDS011;63134;52.020;4.714;2023-11-19T14:05:21;26.85;;;6.13;;
22786;SDS011;63134;52.020;4.714;2023-11-19T14:08:11;25.92;;;6.45;;
22786;SDS011;63134;52.020;4.714;2023-11-19T14:11:09;34.47;;;6.30;;
22786;SDS011;63134;52.020;4.714;2023-11-19T14:13:58;35.17;;;8.18;;
22786;SDS011;63134;52.020;4.714;2023-11-19T14:16:46;33.38;;;7.60;;
22786;SDS011;63134;52.020;4.714;2023-11-19T14:19:32;32.20;;;8.07;;
22786;SDS011;63134;52.020;4.714;2023-11-19T14:22:18;27.38;;;7.03;;
22786;SDS011;63134;52.020;4.714;2023-11-19T14:25:04;39.90;;;9.30;;
22786;SDS011;63134;52.020;4.714;2023-11-19T14:27:50;32.03;;;7.35;;
22786;SDS011;63134;52.020;4.714;2023-11-19T14:30:37;32.08;;;8.30;;
22786;SDS011;63134;52.020;4.714;2023-11-19T14:33:23;33.53;;;7.53;;
22786;SDS011;63134;52.020;4.714;2023-11-19T14:36:09;31.67;;;7.78;;
22786;SDS011;63134;52.020;4.714;2023-11-19T14:38:55;33.95;;;7.93;;
22786;SDS011;63134;52.020;4.714;2023-11-19T14:41:42;33.47;;;6.75;;
22786;SDS011;63134;52.020;4.714;2023-11-19T14:44:29;32.85;;;7.93;;
22786;SDS011;63134;52.020;4.714;2023-11-19T14:47:15;25.92;;;6.90;;
22786;SDS011;63134;52.020;4.714;2023-11-19T14:50:00;31.30;;;6.93;;
22786;SDS011;63134;52.020;4.714;2023-11-19T14:52:46;26.15;;;6.97;;
22786;SDS011;63134;52.020;4.714;2023-11-19T14:55:31;28.90;;;7.05;;
22786;SDS011;63134;52.020;4.714;2023-11-19T14:58:17;30.50;;;7.60;;
22786;SDS011;63134;52.020;4.714;2023-11-19T15:01:03;34.35;;;7.93;;
22786;SDS011;63134;52.020;4.714;2023-11-19T15:03:49;33.42;;;7.65;;
22786;SDS011;63134;52.020;4.714;2023-11-19T15:06:38;30.73;;;7.22;;
22786;SDS011;63134;52.020;4.714;2023-11-19T15:09:24;34.70;;;8.00;;
22786;SDS011;63134;52.020;4.714;2023-11-19T15:12:09;32.97;;;7.03;;
22786;SDS011;63134;52.020;4.714;2023-11-19T15:14:55;37.40;;;8.43;;
22786;SDS011;63134;52.020;4.714;2023-11-19T15:17:41;37.83;;;8.02;;
22786;SDS011;63134;52.020;4.714;2023-11-19T15:20:27;33.05;;;8.55;;
22786;SDS011;63134;52.020;4.714;2023-11-19T15:23:16;36.40;;;7.97;;
22786;SDS011;63134;52.020;4.714;2023-11-19T15:26:02;36.83;;;7.22;;
22786;SDS011;63134;52.020;4.714;2023-11-19T15:28:47;41.13;;;8.45;;
22786;SDS011;63134;52.020;4.714;2023-11-19T15:31:33;36.42;;;7.97;;
22786;SDS011;63134;52.020;4.714;2023-11-19T15:34:18;35.63;;;8.50;;
22786;SDS011;63134;52.020;4.714;2023-11-19T15:37:04;39.70;;;8.48;;
22786;SDS011;63134;52.020;4.714;2023-11-19T15:39:50;38.22;;;7.78;;
22786;SDS011;63134;52.020;4.714;2023-11-19T15:42:36;30.17;;;7.13;;
22786;SDS011;63134;52.020;4.714;2023-11-19T15:45:21;36.70;;;7.45;;
22786;SDS011;63134;52.020;4.714;2023-11-19T15:48:07;30.65;;;7.25;;
22786;SDS011;63134;52.020;4.714;2023-11-19T15:50:52;35.08;;;7.40;;
22786;SDS011;63134;52.020;4.714;2023-11-19T15:53:38;37.85;;;7.63;;
22786;SDS011;63134;52.020;4.714;2023-11-19T15:56:27;27.40;;;7.38;;
22786;SDS011;63134;52.020;4.714;2023-11-19T15:59:16;32.60;;;6.38;;
22786;SDS011;63134;52.020;4.714;2023-11-19T16:02:01;26.55;;;7.00;;
22786;SDS011;63134;52.020;4.714;2023-11-19T16:04:47;33.22;;;7.60;;
22786;SDS011;63134;52.020;4.714;2023-11-19T16:07:35;32.05;;;6.55;;
22786;SDS011;63134;52.020;4.714;2023-11-19T16:10:20;32.20;;;7.45;;
22786;SDS011;63134;52.020;4.714;2023-11-19T16:13:10;40.67;;;8.48;;
22786;SDS011;63134;52.020;4.714;2023-11-19T16:15:56;33.75;;;6.78;;
22786;SDS011;63134;52.020;4.714;2023-11-19T16:18:42;38.67;;;7.72;;
22786;SDS011;63134;52.020;4.714;2023-11-19T16:21:27;34.33;;;6.53;;
22786;SDS011;63134;52.020;4.714;2023-11-19T16:24:15;43.58;;;8.23;;
22786;SDS011;63134;52.020;4.714;2023-11-19T16:27:01;35.20;;;6.85;;
22786;SDS011;63134;52.020;4.714;2023-11-19T16:29:47;32.13;;;6.88;;
22786;SDS011;63134;52.020;4.714;2023-11-19T16:32:32;35.33;;;7.15;;
22786;SDS011;63134;52.020;4.714;2023-11-19T16:35:19;36.72;;;7.47;;
22786;SDS011;63134;52.020;4.714;2023-11-19T16:38:09;28.83;;;7.32;;
22786;SDS011;63134;52.020;4.714;2023-11-19T16:40:54;32.47;;;7.28;;
22786;SDS011;63134;52.020;4.714;2023-11-19T16:43:40;39.67;;;8.38;;
22786;SDS011;63134;52.020;4.714;2023-11-19T16:46:26;37.78;;;7.25;;
22786;SDS011;63134;52.020;4.714;2023-11-19T16:49:12;45.28;;;9.05;;